Time;durP1;ratioP1;P1;durP2;ratioP2;P2;SDS_P1;SDS_P2;PMS_P1;PMS_P2;Temp;Humidity;BMP_temperature;BMP_pressure;BME280_temperature;BME280_humidity;BME280_pressure;Samples;Min_cycle;Max_cycle;Signal;HPM_P1;HPM_P2
2021/05/20 00:00:37;;;;;;;13.62;11.05;;;;;;;10.85;75.96;96297.53;1725492;80;21090;-82
2021/05/20 00:03:04;;;;;;;16.45;12.60;;;;;;;10.85;75.82;96302.73;1747356;80;21026;-82
2021/05/20 00:05:30;;;;;;;15.15;11.43;;;;;;;10.87;75.69;96298.64;1725178;80;21371;-82
2021/05/20 00:07:56;;;;;;;15.10;11.05;;;;;;;10.88;75.66;96303.66;1726207;80;21303;-81
2021/05/20 00:10:22;;;;;;;15.03;11.55;;;;;;;10.88;75.85;96298.95;1735764;82;21049;-82
2021/05/20 00:12:47;;;;;;;13.58;9.90;;;;;;;10.85;75.90;96301.93;1735327;80;21005;-82
2021/05/20 00:15:14;;;;;;;14.47;11.00;;;;;;;10.83;75.91;96304.22;1725139;80;20966;-82
2021/05/20 00:17:40;;;;;;;14.30;10.15;;;;;;;10.83;76.00;96300.32;1724775;82;20997;-82
2021/05/20 00:20:07;;;;;;;11.65;9.85;;;;;;;10.86;76.04;96304.34;1727965;82;20982;-81
2021/05/20 00:22:33;;;;;;;12.50;10.10;;;;;;;10.85;75.98;96305.33;1725563;82;21279;-82
2021/05/20 00:24:58;;;;;;;14.87;11.20;;;;;;;10.83;76.30;96304.22;1741241;80;21045;-82
2021/05/20 00:27:24;;;;;;;14.55;10.53;;;;;;;10.83;76.22;96307.31;1727050;80;21117;-82
2021/05/20 00:29:50;;;;;;;15.38;11.45;;;;;;;10.82;76.14;96307.01;1723818;82;21327;-82
2021/05/20 00:32:17;;;;;;;12.47;10.38;;;;;;;10.82;76.22;96298.72;1719294;81;20958;-82
2021/05/20 00:34:43;;;;;;;15.48;9.83;;;;;;;10.82;75.96;96301.31;1736529;81;20983;-82
2021/05/20 00:37:09;;;;;;;12.28;9.80;;;;;;;10.83;76.10;96307.31;1740390;81;21296;-82
2021/05/20 00:39:34;;;;;;;13.15;9.35;;;;;;;10.83;76.08;96308.12;1718788;81;20970;-82
2021/05/20 00:42:08;;;;;;;11.95;8.63;;;;;;;10.82;75.99;96307.81;1730591;81;21050;-82
2021/05/20 00:44:53;;;;;;;12.55;9.08;;;;;;;10.79;75.98;96304.29;1728520;82;21272;-82
2021/05/20 00:47:22;;;;;;;11.68;9.10;;;;;;;10.75;75.97;96299.66;1736274;82;21046;-82
2021/05/20 00:49:48;;;;;;;11.25;8.80;;;;;;;10.72;76.04;96303.89;1740525;82;21031;-82
2021/05/20 00:52:14;;;;;;;11.25;9.43;;;;;;;10.68;75.99;96299.56;1735099;81;20999;-82
2021/05/20 00:54:40;;;;;;;13.78;9.18;;;;;;;10.68;75.97;96298.77;1712548;81;20943;-82
2021/05/20 00:57:07;;;;;;;11.40;9.43;;;;;;;10.65;76.04;96298.64;1712384;81;20967;-82
2021/05/20 00:59:32;;;;;;;12.40;9.33;;;;;;;10.66;76.09;96302.84;1713554;81;21322;-82
2021/05/20 01:01:59;;;;;;;11.63;8.88;;;;;;;10.66;76.23;96304.64;1734057;81;21016;-82
2021/05/20 01:04:26;;;;;;;15.30;9.13;;;;;;;10.65;76.44;96306.93;1727401;81;21268;-82
2021/05/20 01:06:52;;;;;;;13.38;9.95;;;;;;;10.65;76.54;96303.83;1717285;81;20951;-82
2021/05/20 01:09:18;;;;;;;12.00;8.75;;;;;;;10.67;76.53;96303.16;1723286;82;21253;-82
2021/05/20 01:11:43;;;;;;;11.85;9.03;;;;;;;10.68;76.54;96307.86;1735380;81;22745;-82
2021/05/20 01:14:11;;;;;;;13.20;9.93;;;;;;;10.70;76.38;96307.17;1711895;81;21054;-82
2021/05/20 01:16:40;;;;;;;11.43;9.60;;;;;;;10.67;76.33;96303.65;1713633;82;21384;-82
2021/05/20 01:19:05;;;;;;;10.20;8.98;;;;;;;10.65;76.43;96301.73;1722908;81;20939;-82
2021/05/20 01:21:33;;;;;;;10.95;7.97;;;;;;;10.61;76.43;96296.60;1723329;81;20979;-82
2021/05/20 01:23:59;;;;;;;10.45;8.33;;;;;;;10.60;76.48;96304.09;1712431;81;21002;-82
2021/05/20 01:26:26;;;;;;;13.03;8.25;;;;;;;10.60;76.53;96294.50;1725080;81;21006;-82
2021/05/20 01:28:52;;;;;;;12.80;9.43;;;;;;;10.60;76.47;96297.09;1729352;80;20998;-82
2021/05/20 01:31:17;;;;;;;12.15;10.28;;;;;;;10.61;76.58;96300.50;1725678;80;21041;-82
2021/05/20 01:33:43;;;;;;;11.80;9.15;;;;;;;10.62;76.56;96303.41;1727883;80;20990;-82
2021/05/20 01:36:09;;;;;;;12.75;9.20;;;;;;;10.60;76.65;96310.58;1727917;80;20948;-82
2021/05/20 01:41:07;;;;;;;11.05;9.33;;;;;;;10.57;76.83;96303.13;1735232;80;21013;-82
2021/05/20 01:43:33;;;;;;;12.73;8.80;;;;;;;10.53;76.84;96307.40;1727208;80;20938;-82
2021/05/20 01:46:00;;;;;;;10.35;9.25;;;;;;;10.54;76.86;96312.09;1699397;82;21264;-82
2021/05/20 01:48:30;;;;;;;10.25;8.73;;;;;;;10.58;76.88;96316.45;1725956;82;21009;-82
2021/05/20 01:51:15;;;;;;;11.88;9.15;;;;;;;10.61;76.75;96308.30;1725471;80;20982;-82
2021/05/20 01:53:43;;;;;;;15.98;12.68;;;;;;;10.62;76.76;96309.41;1744316;80;21078;-82
2021/05/20 01:56:09;;;;;;;13.48;12.07;;;;;;;10.62;76.71;96309.91;1731180;80;21038;-82
2021/05/20 01:58:36;;;;;;;14.60;12.25;;;;;;;10.61;76.60;96313.48;1741216;82;21014;-82
2021/05/20 02:01:02;;;;;;;14.58;12.10;;;;;;;10.60;76.62;96312.69;1727113;80;21038;-82
2021/05/20 02:03:28;;;;;;;12.60;10.45;;;;;;;10.60;76.85;96317.08;1745765;82;21383;-82
2021/05/20 02:05:53;;;;;;;14.65;11.00;;;;;;;10.59;76.91;96314.17;1725540;80;21018;-82
2021/05/20 02:08:19;;;;;;;12.82;11.25;;;;;;;10.57;76.64;96318.22;1726686;80;21037;-82
2021/05/20 02:10:45;;;;;;;14.30;12.10;;;;;;;10.57;76.62;96315.62;1725504;82;21323;-82
2021/05/20 02:13:11;;;;;;;15.08;13.20;;;;;;;10.58;76.62;96317.27;1746196;80;20982;-82
2021/05/20 02:15:37;;;;;;;16.20;13.22;;;;;;;10.58;76.59;96318.56;1747588;80;20986;-82
2021/05/20 02:18:05;;;;;;;14.10;11.83;;;;;;;10.58;76.48;96318.56;1744611;82;20946;-82
2021/05/20 02:20:31;;;;;;;14.87;11.83;;;;;;;10.56;76.90;96333.50;1725544;81;20958;-82
2021/05/20 02:22:56;;;;;;;15.72;12.40;;;;;;;10.56;76.82;96323.11;1727144;82;20946;-82
2021/05/20 02:25:23;;;;;;;14.93;11.88;;;;;;;10.54;76.55;96323.78;1747523;80;21055;-82
2021/05/20 02:27:49;;;;;;;15.32;12.30;;;;;;;10.55;76.63;96323.30;1746033;80;21317;-82
2021/05/20 02:30:15;;;;;;;15.95;12.23;;;;;;;10.59;76.67;96322.77;1727065;80;21013;-82
2021/05/20 02:32:41;;;;;;;15.08;12.95;;;;;;;10.60;76.50;96323.08;1725400;80;20986;-82
2021/05/20 02:35:08;;;;;;;15.83;12.75;;;;;;;10.58;76.33;96325.05;1726252;82;20923;-82
2021/05/20 02:37:33;;;;;;;15.38;12.40;;;;;;;10.53;76.33;96326.88;1725942;80;21066;-82
2021/05/20 02:39:59;;;;;;;14.78;11.93;;;;;;;10.50;76.50;96323.36;1747327;80;20973;-82
2021/05/20 02:42:25;;;;;;;15.03;11.57;;;;;;;10.49;76.37;96327.44;1725910;80;21025;-82
2021/05/20 02:44:51;;;;;;;12.80;11.48;;;;;;;10.50;76.30;96332.94;1727452;82;20950;-82
2021/05/20 02:47:17;;;;;;;13.58;11.68;;;;;;;10.49;76.16;96333.44;1734453;82;20994;-82
2021/05/20 02:49:43;;;;;;;12.35;10.93;;;;;;;10.44;76.13;96335.78;1737098;80;20946;-81
2021/05/20 02:52:10;;;;;;;13.35;11.68;;;;;;;10.34;76.22;96335.74;1717175;82;20990;-80
2021/05/20 02:54:37;;;;;;;11.60;10.43;;;;;;;10.32;76.31;96332.52;1725713;82;20970;-80
2021/05/20 02:57:04;;;;;;;14.18;10.72;;;;;;;10.32;76.38;96334.63;1746410;82;20970;-81
2021/05/20 02:59:30;;;;;;;11.90;9.68;;;;;;;10.35;76.38;96337.35;1726513;80;20946;-81
2021/05/20 03:02:03;;;;;;;14.95;10.75;;;;;;;10.37;76.31;96332.28;1728200;80;21271;-81
2021/05/20 03:04:25;;;;;;;12.95;10.70;;;;;;;10.39;76.33;96337.30;1746798;80;20998;-81
2021/05/20 03:06:51;;;;;;;13.93;11.68;;;;;;;10.41;76.34;96340.51;1725439;80;20962;-81
2021/05/20 03:09:16;;;;;;;13.72;10.65;;;;;;;10.40;76.35;96348.80;1725896;80;21001;-81
2021/05/20 03:11:42;;;;;;;15.20;11.10;;;;;;;10.38;76.39;96352.08;1725259;82;21085;-81
2021/05/20 03:14:08;;;;;;;14.38;11.05;;;;;;;10.40;76.59;96357.89;1725374;80;21037;-81
2021/05/20 03:16:34;;;;;;;13.55;10.55;;;;;;;10.37;76.32;96360.85;1727922;82;21042;-82
2021/05/20 03:19:00;;;;;;;12.50;10.50;;;;;;;10.35;76.23;96358.13;1726134;80;21326;-82
2021/05/20 03:21:26;;;;;;;12.43;9.90;;;;;;;10.34;76.22;96362.52;1699112;83;21035;-82
2021/05/20 03:23:54;;;;;;;14.65;11.22;;;;;;;10.35;76.41;96355.53;1725907;80;21006;-82
2021/05/20 03:26:20;;;;;;;13.40;10.08;;;;;;;10.36;76.42;96356.65;1738177;80;21065;-82
2021/05/20 03:28:46;;;;;;;12.65;10.30;;;;;;;10.38;76.51;96359.87;1753925;80;20998;-82
2021/05/20 03:31:11;;;;;;;11.48;10.28;;;;;;;10.41;76.55;96356.09;1728231;80;20955;-82
2021/05/20 03:33:40;;;;;;;12.05;10.48;;;;;;;10.44;76.48;96357.06;1739307;80;20958;-82
2021/05/20 03:36:06;;;;;;;11.48;10.35;;;;;;;10.51;76.39;96361.83;1752444;80;21244;-82
2021/05/20 03:38:31;;;;;;;12.28;10.85;;;;;;;10.53;76.22;96360.66;1725549;80;20994;-82
2021/05/20 03:41:00;;;;;;;13.22;11.40;;;;;;;10.53;76.35;96366.34;1744932;82;21013;-82
2021/05/20 03:43:25;;;;;;;11.88;10.68;;;;;;;10.50;76.25;96369.31;1726394;80;20973;-82
2021/05/20 03:45:51;;;;;;;12.33;11.00;;;;;;;10.47;76.31;96373.08;1698867;83;21030;-82
2021/05/20 03:48:17;;;;;;;13.55;10.80;;;;;;;10.45;76.28;96371.66;1749739;80;21485;-82
2021/05/20 03:50:42;;;;;;;12.13;10.65;;;;;;;10.46;76.21;96368.07;1715004;82;21006;-82
2021/05/20 03:53:08;;;;;;;11.80;9.40;;;;;;;10.46;76.16;96374.56;1725882;80;21053;-82
2021/05/20 03:55:34;;;;;;;12.15;10.82;;;;;;;10.45;76.00;96369.06;1746449;80;21006;-82
2021/05/20 03:57:59;;;;;;;10.55;9.08;;;;;;;10.42;76.07;96368.93;1726526;80;21296;-82
2021/05/20 04:00:26;;;;;;;12.55;11.20;;;;;;;10.41;76.17;96368.62;1749607;80;20946;-82
2021/05/20 04:02:51;;;;;;;15.13;13.55;;;;;;;10.28;75.98;96369.74;1716631;82;20946;-82
2021/05/20 04:05:17;;;;;;;15.72;12.35;;;;;;;10.30;76.18;96365.66;1725933;80;21016;-82
2021/05/20 04:07:43;;;;;;;12.40;10.95;;;;;;;10.33;76.38;96369.20;1726558;80;20909;-82
2021/05/20 04:10:10;;;;;;;13.98;10.95;;;;;;;10.35;76.33;96377.61;1733286;80;21374;-82
2021/05/20 04:12:36;;;;;;;13.93;12.53;;;;;;;10.43;76.43;96374.44;1752743;80;21338;-82
2021/05/20 04:15:03;;;;;;;14.05;12.55;;;;;;;10.50;76.30;96374.51;1732251;80;21034;-82
2021/05/20 04:17:28;;;;;;;17.05;14.15;;;;;;;10.56;76.21;96380.27;1725433;82;20985;-82
2021/05/20 04:19:54;;;;;;;14.95;13.35;;;;;;;10.60;76.18;96378.94;1725537;82;20988;-82
2021/05/20 04:22:20;;;;;;;15.55;13.85;;;;;;;10.61;76.25;96379.75;1725442;82;20966;-82
2021/05/20 04:24:45;;;;;;;17.40;14.78;;;;;;;10.63;76.25;96381.17;1726183;80;20993;-82
2021/05/20 04:27:12;;;;;;;14.07;12.37;;;;;;;10.65;76.17;96380.98;1725507;80;21013;-82
2021/05/20 04:29:38;;;;;;;17.92;13.98;;;;;;;10.66;75.97;96380.00;1724930;81;21360;-82
2021/05/20 04:32:04;;;;;;;15.95;12.98;;;;;;;10.64;75.70;96380.67;1722861;81;21022;-82
2021/05/20 04:34:30;;;;;;;14.43;13.03;;;;;;;10.66;75.90;96388.59;1736318;81;21264;-82
2021/05/20 04:36:56;;;;;;;15.40;13.78;;;;;;;10.67;75.92;96390.20;1729934;82;21009;-82
2021/05/20 04:39:22;;;;;;;16.35;13.05;;;;;;;10.65;75.73;96394.78;1731561;81;20950;-82
2021/05/20 04:41:48;;;;;;;14.75;12.73;;;;;;;10.65;75.65;96399.98;1732095;81;21156;-82
2021/05/20 04:44:13;;;;;;;15.23;12.28;;;;;;;10.65;75.74;96397.38;1724248;82;20970;-82
2021/05/20 04:46:39;;;;;;;13.35;12.05;;;;;;;10.66;75.56;96398.98;1719815;81;20967;-82
2021/05/20 04:49:14;;;;;;;15.15;11.80;;;;;;;10.69;75.68;96402.52;1712448;81;21283;-82
2021/05/20 04:51:41;;;;;;;14.75;13.25;;;;;;;10.73;75.76;96411.55;1730521;82;21266;-82
2021/05/20 04:54:07;;;;;;;15.08;13.45;;;;;;;10.69;75.45;96412.11;1715024;81;21275;-82
2021/05/20 04:56:33;;;;;;;14.33;12.82;;;;;;;10.61;75.52;96414.33;1725978;81;21046;-82
2021/05/20 04:58:59;;;;;;;14.73;13.08;;;;;;;10.64;75.60;96419.16;1719800;81;20990;-82
2021/05/20 05:01:25;;;;;;;15.18;13.60;;;;;;;10.62;75.69;96420.33;1733189;81;21356;-82
2021/05/20 05:03:51;;;;;;;17.55;13.38;;;;;;;10.56;75.62;96423.13;1708486;82;20975;-82
2021/05/20 05:06:16;;;;;;;15.30;13.48;;;;;;;10.56;75.50;96423.13;1735730;82;20975;-82
2021/05/20 05:08:42;;;;;;;14.13;12.45;;;;;;;10.57;75.73;96429.14;1711891;81;21320;-82
2021/05/20 05:11:08;;;;;;;14.00;12.35;;;;;;;10.51;75.46;96432.78;1711932;82;20942;-82
2021/05/20 05:13:34;;;;;;;14.80;12.33;;;;;;;10.44;75.42;96433.20;1733229;81;20982;-82
2021/05/20 05:16:00;;;;;;;12.73;11.43;;;;;;;10.39;75.47;96431.61;1712644;81;20962;-82
2021/05/20 05:18:26;;;;;;;11.73;10.15;;;;;;;10.34;75.66;96430.05;1732823;81;21315;-82
2021/05/20 05:20:52;;;;;;;11.63;10.43;;;;;;;10.34;75.63;96431.34;1712071;82;21022;-82
2021/05/20 05:23:17;;;;;;;12.93;10.98;;;;;;;10.31;75.75;96430.41;1692207;83;20974;-82
2021/05/20 05:25:49;;;;;;;13.88;10.23;;;;;;;10.35;75.86;96427.76;1738460;81;20991;-82
2021/05/20 05:28:15;;;;;;;13.62;11.08;;;;;;;10.43;76.08;96433.37;1706302;82;20934;-82
2021/05/20 05:30:41;;;;;;;12.65;11.35;;;;;;;10.46;76.09;96431.72;1715043;82;20963;-82
2021/05/20 05:33:06;;;;;;;13.10;11.53;;;;;;;10.47;76.23;96436.73;1729727;81;20982;-81
2021/05/20 05:35:32;;;;;;;13.22;10.75;;;;;;;10.46;76.10;96435.61;1732588;82;20942;-82
2021/05/20 05:37:58;;;;;;;12.40;10.93;;;;;;;10.49;76.00;96431.34;1719094;81;21343;-82
2021/05/20 05:40:24;;;;;;;13.43;10.72;;;;;;;10.54;76.03;96432.91;1726792;81;21018;-82
2021/05/20 05:42:50;;;;;;;13.00;11.43;;;;;;;10.48;75.75;96436.23;1734435;81;21018;-82
2021/05/20 05:45:15;;;;;;;13.68;10.48;;;;;;;10.43;75.89;96435.48;1711871;81;20955;-82
2021/05/20 05:47:41;;;;;;;13.50;10.98;;;;;;;10.44;76.09;96440.98;1712437;81;21299;-82
2021/05/20 05:50:11;;;;;;;13.65;11.80;;;;;;;10.46;76.24;96446.00;1733051;81;20995;-82
2021/05/20 05:52:35;;;;;;;13.58;10.80;;;;;;;10.47;76.13;96437.22;1729878;81;20975;-82
2021/05/20 05:55:02;;;;;;;14.98;11.05;;;;;;;10.47;76.09;96444.52;1730348;82;20939;-82
2021/05/20 05:57:28;;;;;;;15.30;11.22;;;;;;;10.49;76.02;96451.64;1732726;81;20963;-82
2021/05/20 05:59:54;;;;;;;12.88;10.95;;;;;;;10.49;75.93;96445.64;1723448;81;20950;-82
2021/05/20 06:02:20;;;;;;;14.78;12.15;;;;;;;10.46;75.89;96449.41;1740018;81;21003;-82
2021/05/20 06:04:52;;;;;;;13.13;11.57;;;;;;;10.45;76.02;96450.88;1710806;81;20931;-82
2021/05/20 06:07:18;;;;;;;14.95;11.93;;;;;;;10.45;76.13;96452.19;1712479;81;20994;-82
2021/05/20 06:09:44;;;;;;;14.60;12.05;;;;;;;10.48;76.34;96453.92;1731315;82;20995;-82
2021/05/20 06:12:11;;;;;;;13.60;12.18;;;;;;;10.56;76.65;96454.81;1695056;83;21081;-82
2021/05/20 06:14:39;;;;;;;13.90;12.35;;;;;;;10.59;76.27;96460.97;1682022;84;20967;-82
2021/05/20 06:17:04;;;;;;;16.90;13.10;;;;;;;10.63;76.43;96455.72;1732575;81;20970;-82
2021/05/20 06:19:31;;;;;;;14.85;13.05;;;;;;;10.65;76.57;96458.94;1728369;81;21058;-82
2021/05/20 06:21:56;;;;;;;21.02;18.95;;;;;;;10.64;76.46;96454.23;1737018;81;20946;-82
2021/05/20 06:24:22;;;;;;;21.82;19.50;;;;;;;10.59;76.03;96463.56;1731210;82;21015;-82
2021/05/20 06:26:48;;;;;;;22.93;20.45;;;;;;;10.56;76.33;96463.90;1730678;81;20974;-82
2021/05/20 06:29:14;;;;;;;21.45;17.92;;;;;;;10.58;76.43;96463.25;1642223;86;21331;-82
2021/05/20 06:31:40;;;;;;;18.98;17.12;;;;;;;10.59;76.17;96467.47;1709137;81;20944;-82
2021/05/20 06:34:05;;;;;;;20.45;17.98;;;;;;;10.60;76.32;96464.69;1688812;84;20947;-82
2021/05/20 06:36:32;;;;;;;23.38;20.97;;;;;;;10.63;76.26;96470.81;1709099;82;20994;-82
2021/05/20 06:38:58;;;;;;;22.90;20.48;;;;;;;10.65;76.27;96469.33;1723318;81;20963;-82
2021/05/20 06:41:23;;;;;;;25.05;22.58;;;;;;;10.70;76.29;96472.19;1734665;83;21042;-82
2021/05/20 06:43:49;;;;;;;23.18;20.88;;;;;;;10.72;76.39;96476.22;1728522;81;21014;-82
2021/05/20 06:46:15;;;;;;;22.50;20.17;;;;;;;10.77;76.63;96472.61;1711434;81;20998;-82
2021/05/20 06:48:40;;;;;;;18.55;15.88;;;;;;;10.80;76.43;96477.44;1700830;82;21274;-82
2021/05/20 06:51:06;;;;;;;19.60;17.62;;;;;;;10.87;76.10;96483.20;1723837;81;20954;-82
2021/05/20 06:53:35;;;;;;;27.42;24.72;;;;;;;10.81;76.08;96482.14;1733206;81;21331;-82
2021/05/20 06:56:03;;;;;;;66.85;61.95;;;;;;;10.95;76.70;96479.22;1738524;81;20943;-82
2021/05/20 07:01:13;;;;;;;24.72;22.27;;;;;;;11.18;76.42;96475.18;1714934;81;21046;-81
2021/05/20 07:03:39;;;;;;;18.60;16.70;;;;;;;11.26;76.40;96482.39;1712215;81;20983;-81
2021/05/20 07:06:05;;;;;;;18.67;16.87;;;;;;;11.31;76.14;96483.14;1731759;81;20975;-81
2021/05/20 07:08:30;;;;;;;18.95;16.95;;;;;;;11.33;75.53;96481.16;1712628;82;20951;-81
2021/05/20 07:10:57;;;;;;;21.50;19.27;;;;;;;11.36;75.55;96486.79;1711905;82;20966;-82
2021/05/20 07:13:22;;;;;;;21.23;19.12;;;;;;;11.32;75.29;96484.25;1732327;81;21030;-81
2021/05/20 07:15:48;;;;;;;20.77;18.77;;;;;;;11.36;75.44;96489.39;1711559;81;20958;-81
2021/05/20 07:18:15;;;;;;;22.55;20.30;;;;;;;11.40;75.38;96487.25;1714282;81;20979;-81
2021/05/20 07:20:41;;;;;;;22.77;20.48;;;;;;;11.48;75.43;96485.82;1732363;81;20971;-81
2021/05/20 07:23:15;;;;;;;21.42;19.15;;;;;;;11.54;75.06;96485.07;1712118;82;20927;-82
2021/05/20 07:25:42;;;;;;;23.47;20.68;;;;;;;11.70;75.01;96483.53;1712043;82;20962;-82
2021/05/20 07:28:07;;;;;;;22.82;20.62;;;;;;;12.01;74.78;96483.23;1711900;81;20962;-81
2021/05/20 07:30:34;;;;;;;23.00;20.72;;;;;;;12.10;74.12;96480.52;1723469;82;21094;-81
2021/05/20 07:32:59;;;;;;;23.45;21.05;;;;;;;12.27;74.65;96485.75;1745388;82;20970;-82
2021/05/20 07:35:25;;;;;;;22.00;19.62;;;;;;;12.26;73.72;96488.86;1726019;80;21235;-81
2021/05/20 07:37:51;;;;;;;22.70;20.30;;;;;;;12.37;74.11;96480.22;1727744;80;20995;-81
2021/05/20 07:40:18;;;;;;;20.08;18.07;;;;;;;12.48;74.01;96479.67;1725908;80;20950;-81
2021/05/20 07:42:46;;;;;;;21.17;18.95;;;;;;;12.51;73.76;96482.70;1701006;82;21113;-81
2021/05/20 07:45:14;;;;;;;19.15;17.23;;;;;;;12.50;73.32;96478.48;1725865;80;20991;-81
2021/05/20 07:47:40;;;;;;;17.62;15.80;;;;;;;12.63;73.20;96479.06;1754001;80;21291;-81
2021/05/20 07:50:07;;;;;;;23.75;21.65;;;;;;;12.73;73.04;96476.12;1751888;80;20970;-82
2021/05/20 07:52:33;;;;;;;20.17;18.15;;;;;;;12.65;72.59;96472.35;1752755;80;21034;-81
2021/05/20 07:54:58;;;;;;;17.82;16.10;;;;;;;12.45;72.17;96476.95;1744774;82;20989;-82
2021/05/20 07:57:24;;;;;;;18.57;16.73;;;;;;;12.22;72.82;96480.31;1743777;80;21244;-82
2021/05/20 07:59:52;;;;;;;20.08;18.07;;;;;;;12.02;72.89;96473.13;1750936;80;20979;-81
2021/05/20 08:02:29;;;;;;;22.35;20.00;;;;;;;11.83;73.47;96489.39;1725486;80;21334;-81
2021/05/20 08:04:47;;;;;;;20.80;18.25;;;;;;;11.61;74.08;96500.77;1723428;82;21299;-82
2021/05/20 08:09:48;;;;;;;21.68;18.32;;;;;;;11.32;74.62;96496.45;1727492;80;20951;-82
2021/05/20 08:12:10;;;;;;;21.07;18.85;;;;;;;11.20;74.78;96494.00;1742485;80;21310;-82
2021/05/20 08:14:35;;;;;;;20.80;18.75;;;;;;;11.05;75.09;96490.13;1725132;82;21263;-82
2021/05/20 08:17:01;;;;;;;21.93;18.90;;;;;;;10.93;75.66;96494.20;1726211;80;21080;-82
2021/05/20 08:19:27;;;;;;;21.93;18.52;;;;;;;10.90;76.15;96502.33;1738641;82;21022;-82
2021/05/20 08:21:53;;;;;;;19.92;17.77;;;;;;;10.88;76.42;96501.22;1753726;80;21038;-81
2021/05/20 08:24:19;;;;;;;22.02;19.52;;;;;;;10.93;76.86;96502.00;1725477;80;21287;-81
2021/05/20 08:26:45;;;;;;;19.95;17.82;;;;;;;11.02;77.01;96507.39;1725875;80;21038;-81
2021/05/20 08:29:11;;;;;;;21.93;19.40;;;;;;;11.20;77.46;96500.02;1728774;80;21347;-81
2021/05/20 08:31:37;;;;;;;17.85;16.05;;;;;;;11.52;77.89;96494.86;1741020;81;21012;-82
2021/05/20 08:34:03;;;;;;;18.02;16.20;;;;;;;11.86;77.02;96494.72;1722377;81;20983;-81
2021/05/20 08:36:31;;;;;;;20.37;18.02;;;;;;;12.19;77.35;96504.91;1717680;81;21307;-81
2021/05/20 08:38:57;;;;;;;18.23;16.32;;;;;;;12.48;76.43;96500.52;1741425;82;20975;-81
2021/05/20 08:41:23;;;;;;;19.87;17.87;;;;;;;12.48;75.69;96506.54;1721285;81;21268;-81
2021/05/20 08:43:49;;;;;;;20.23;18.05;;;;;;;12.52;76.53;96503.85;1740786;82;21014;-81
2021/05/20 08:46:23;;;;;;;18.32;16.60;;;;;;;12.65;77.20;96506.24;1720863;81;20963;-81
2021/05/20 08:48:49;;;;;;;17.87;16.07;;;;;;;12.82;76.24;96503.63;1730796;82;20970;-81
2021/05/20 08:51:15;;;;;;;14.20;12.80;;;;;;;13.00;77.09;96499.20;1728981;82;20935;-81
2021/05/20 08:53:41;;;;;;;14.25;12.93;;;;;;;13.27;75.76;96497.55;1739388;81;21026;-81
2021/05/20 08:56:11;;;;;;;16.80;15.08;;;;;;;13.55;75.54;96495.64;1728475;82;20994;-81
2021/05/20 08:58:37;;;;;;;14.23;10.25;;;;;;;13.65;76.09;96490.02;1712053;81;21015;-82
2021/05/20 09:01:03;;;;;;;12.05;10.85;;;;;;;13.87;73.94;96488.88;1722845;82;20943;-81
2021/05/20 09:03:29;;;;;;;10.08;9.08;;;;;;;14.11;74.65;96492.69;1721882;81;20967;-81
2021/05/20 09:05:57;;;;;;;9.68;8.05;;;;;;;14.31;72.95;96486.14;1715974;81;20935;-81
2021/05/20 09:08:28;;;;;;;8.35;6.83;;;;;;;14.41;72.55;96485.24;1727335;81;20962;-81
2021/05/20 09:10:51;;;;;;;6.08;4.78;;;;;;;14.26;72.40;96491.98;1690968;82;21304;-81
2021/05/20 09:13:18;;;;;;;5.05;4.50;;;;;;;13.94;68.56;96492.78;1712566;81;20978;-82
2021/05/20 09:15:48;;;;;;;6.15;4.22;;;;;;;13.52;70.16;96498.66;1714450;81;21268;-82
2021/05/20 09:18:24;;;;;;;4.58;3.60;;;;;;;13.25;70.74;96506.88;1711995;82;20947;-82
2021/05/20 09:20:53;;;;;;;4.62;3.77;;;;;;;13.02;69.88;96505.87;1712422;81;20966;-81
2021/05/20 09:23:26;;;;;;;6.28;4.58;;;;;;;12.83;71.52;96515.17;1712313;81;20987;-81
2021/05/20 09:26:06;;;;;;;6.65;5.22;;;;;;;12.59;71.63;96519.05;1694220;82;21051;-81
2021/05/20 09:28:35;;;;;;;8.08;7.03;;;;;;;12.40;71.90;96521.03;1712013;81;20998;-81
2021/05/20 09:31:01;;;;;;;6.85;5.12;;;;;;;12.29;72.65;96517.13;1726615;81;21089;-81
2021/05/20 09:33:27;;;;;;;6.22;5.53;;;;;;;12.27;72.39;96513.11;1754793;82;21090;-81
2021/05/20 09:35:53;;;;;;;5.35;4.80;;;;;;;12.32;73.91;96506.83;1734021;82;21279;-82
2021/05/20 09:38:25;;;;;;;6.85;4.92;;;;;;;12.45;74.52;96514.74;1728185;82;20986;-81
2021/05/20 09:40:58;;;;;;;6.12;4.33;;;;;;;12.65;75.19;96512.76;1728629;80;20967;-81
2021/05/20 09:43:31;;;;;;;4.75;4.20;;;;;;;12.80;75.53;96507.73;1725489;80;21073;-81
2021/05/20 09:46:15;;;;;;;6.50;3.87;;;;;;;13.19;76.20;96513.70;1754942;80;21012;-82
2021/05/20 09:48:45;;;;;;;5.85;3.55;;;;;;;13.47;74.26;96501.83;1735731;80;21014;-82
2021/05/20 09:51:28;;;;;;;3.92;3.58;;;;;;;13.45;73.44;96503.84;1725386;80;21037;-82
2021/05/20 09:53:54;;;;;;;5.85;3.60;;;;;;;13.34;71.67;96501.81;1726157;82;21022;-82
2021/05/20 09:56:40;;;;;;;4.85;3.50;;;;;;;13.38;71.04;96502.22;1726048;80;21338;-82
2021/05/20 09:59:12;;;;;;;5.15;3.60;;;;;;;13.44;71.98;96502.73;1725361;82;21006;-82
2021/05/20 10:01:36;;;;;;;8.18;3.92;;;;;;;13.68;72.59;96498.79;1724795;80;20935;-82
2021/05/20 10:04:03;;;;;;;6.95;4.30;;;;;;;13.85;70.70;96491.38;1739647;82;21381;-82
2021/05/20 10:06:41;;;;;;;4.87;4.03;;;;;;;14.08;70.49;96489.98;1731953;80;20958;-82
2021/05/20 10:09:09;;;;;;;4.28;3.85;;;;;;;14.24;69.25;96482.74;1725320;80;21003;-82
2021/05/20 10:11:36;;;;;;;3.95;3.22;;;;;;;14.53;68.70;96476.31;1746492;82;20974;-82
2021/05/20 10:14:04;;;;;;;3.27;2.72;;;;;;;14.81;67.70;96480.79;1724728;80;21335;-82
2021/05/20 10:16:29;;;;;;;2.75;2.00;;;;;;;15.00;66.20;96475.99;1723621;80;20989;-82
2021/05/20 10:18:55;;;;;;;5.47;2.20;;;;;;;15.16;64.48;96478.66;1746930;80;21073;-82
2021/05/20 10:21:23;;;;;;;3.92;1.75;;;;;;;15.26;63.81;96473.76;1725420;82;20958;-82
2021/05/20 10:23:50;;;;;;;2.47;1.92;;;;;;;15.35;62.94;96485.31;1725040;80;21025;-82
2021/05/20 10:26:16;;;;;;;2.45;1.45;;;;;;;15.05;61.11;96492.38;1738156;80;21298;-82
2021/05/20 10:28:42;;;;;;;2.85;1.67;;;;;;;14.71;62.93;96492.17;1707098;82;20981;-82
2021/05/20 10:31:07;;;;;;;3.72;1.80;;;;;;;14.46;63.62;96487.27;1711886;80;20982;-82
2021/05/20 10:33:33;;;;;;;2.60;1.65;;;;;;;14.41;65.91;96491.27;1691558;82;21264;-82
2021/05/20 10:36:00;;;;;;;3.30;1.70;;;;;;;14.53;65.90;96480.23;1713100;81;20947;-82
2021/05/20 10:38:35;;;;;;;1.57;1.30;;;;;;;14.63;64.39;96478.80;1711629;82;20971;-83
2021/05/20 10:41:12;;;;;;;2.30;1.60;;;;;;;14.82;63.27;96483.70;1730184;82;20932;-82
2021/05/20 10:43:42;;;;;;;2.42;1.60;;;;;;;14.90;60.98;96475.61;1719315;81;21022;-82
2021/05/20 10:46:14;;;;;;;1.98;1.27;;;;;;;14.91;60.19;96476.41;1725099;81;21069;-82
2021/05/20 10:48:52;;;;;;;2.70;1.10;;;;;;;14.70;55.04;96486.14;1732852;81;20951;-82
2021/05/20 10:51:26;;;;;;;1.55;1.20;;;;;;;14.58;59.20;96488.27;1707589;81;21351;-83
2021/05/20 10:54:06;;;;;;;1.25;0.82;;;;;;;14.46;60.08;96489.38;1733642;81;20904;-82
2021/05/20 10:56:40;;;;;;;1.70;1.17;;;;;;;14.71;58.23;96485.63;1739972;81;21010;-82
2021/05/20 10:59:29;;;;;;;2.02;1.37;;;;;;;14.97;56.11;96478.23;1718744;81;21058;-82
2021/05/20 11:01:55;;;;;;;3.52;1.30;;;;;;;15.12;56.52;96481.36;1722560;82;21018;-82
2021/05/20 11:04:37;;;;;;;1.60;1.15;;;;;;;14.87;56.64;96485.69;1739820;81;21287;-82
2021/05/20 11:07:04;;;;;;;1.90;1.27;;;;;;;14.70;56.83;96485.33;1729061;81;20976;-82
2021/05/20 11:09:50;;;;;;;1.00;0.80;;;;;;;14.95;56.82;96478.91;1730482;81;20975;-82
2021/05/20 11:12:20;;;;;;;1.57;0.90;;;;;;;15.18;55.57;96472.70;1711871;81;20959;-82
2021/05/20 11:14:45;;;;;;;4.30;1.15;;;;;;;15.43;54.84;96464.91;1708851;81;21023;-82
2021/05/20 11:17:31;;;;;;;2.05;1.42;;;;;;;15.59;56.29;96468.38;1719148;81;21280;-82
2021/05/20 11:20:27;;;;;;;3.20;1.05;;;;;;;15.41;55.76;96474.80;1654744;82;21016;-82
2021/05/20 11:23:21;;;;;;;3.17;1.15;;;;;;;15.20;54.38;96482.45;1712055;81;20947;-82
2021/05/20 11:25:47;;;;;;;1.20;0.90;;;;;;;15.05;58.06;96487.64;1717313;81;20975;-82
2021/05/20 11:28:17;;;;;;;2.33;1.00;;;;;;;15.25;54.68;96472.66;1682390;84;20935;-82
2021/05/20 11:30:43;;;;;;;1.72;0.90;;;;;;;15.49;52.59;96473.77;1697634;81;21032;-83